Ivan Cardozo

Olheiro-Chefe - Tacuarembo
20 Fev 2028
Domingo
Processo

Personalidade

Adaptabilidade (10) Ambição (12) Controvérsia (5) Lealdade (9) Pressão (19) Profissionalismo (3) Espírito Esportivo (8) Temperamento (8)

Perfil

Estilo de Treinamento Democrático
Licença Continental Pro
Determinação 9
Gestão de Pessoas 2
Motivação 4
Disciplina 4
Satisfação no Trabalho
100%
Fadiga
0%
Função Olheiro-Chefe
Salário 36.2K p/s
Contrato 14.03.2029

Desempenho

Comportamento Bom
Eficácia do Treinamento
25%
Desenvolvimento do Jogador
15%
Prevenção de Lesões
25%
Implementação Tática
40%

Eventos Recentes

Participou de uma reunião de recrutamento 14d atrás
Participou de uma reunião de recrutamento 21d atrás
Participando de desenvolvimento profissional 28d atrás
Participou de uma reunião de recrutamento 28d atrás
Participando de desenvolvimento profissional 28d atrás
Participando de desenvolvimento profissional 28d atrás
Participando de desenvolvimento profissional 28d atrás
Participando de desenvolvimento profissional 35d atrás

Monitorando agora

123
Jogador Clube Status Habilidade Confiança Observado Última observação Último voto
Lucas Pías La Luz Rejeitado 88 / 92 69% 1 01.12.2027 Rejeitar
Gastón Fernández Chacarita Juniors Ativo 103 / 96 40% 2 29.11.2026 -
Pedro Silva Torrejón Gimnasia La Plata Ativo 112 / 111 40% 1 29.11.2026 -
Maksym Tatarenko Chernihiv Ativo 82 / 96 40% 1 29.11.2026 -
Anton Zhylkin Karpaty Ativo 108 / 94 40% 1 28.11.2026 -
Lucas Ruiz Ferro Carril Oeste Ativo 114 / 113 40% 1 28.11.2026 -
Agustín Módica Gimnasia y Esgrima Ativo 128 / 125 40% 1 28.11.2026 -
Kamran Aliev SKA Khabarovsk Ativo 96 / 92 40% 1 28.11.2026 -
Dimitar Sheytanov CSKA 1948 Ativo 108 / 107 40% 2 26.11.2026 -
Enzo Vázquez Central Norte Ativo 109 / 112 40% 1 26.11.2026 -
Joaquín Enrico San Telmo Ativo 114 / 115 40% 2 25.11.2026 -
Miguel Núñez Toronto FC Ativo 101 / 105 40% 1 25.11.2026 -
Nikola Simić TSC Ativo 111 / 89 40% 1 23.11.2026 -
Martin Velichkov Lokomotiv Sofia Ativo 104 / 111 40% 1 22.11.2026 -
Antonio Đaković HNK Vukovar 1991 Ativo 109 / 105 40% 1 22.11.2026 -
Lucas Bruera Carabobo Ativo 114 / 121 40% 2 21.11.2026 -
Denys Ihnatenko Livyi Bereh Ativo 113 / 118 40% 1 21.11.2026 -
Alejo Antilef Debrecen Ativo 110 / 112 40% 2 20.11.2026 -
Esteban Glellel Quilmes Ativo 116 / 106 40% 1 19.11.2026 -
Mariano Moyano Cukaricki Ativo 112 / 116 40% 1 18.11.2026 -
Diego Gaitán Maipú Ativo 106 / 122 40% 2 16.11.2026 -
Sergio Barlocco Trento Ativo 100 / 96 40% 1 16.11.2026 -
Augusto Berrondo Tristán Suárez Ativo 106 / 115 40% 1 16.11.2026 -
Strahinja Manojlović Radnicki Nis Ativo 105 / 119 40% 1 14.11.2026 -
Matías Machado Racing Ativo 115 / 109 40% 1 14.11.2026 -
Andi Vidal Zvezda Ativo 77 / 95 40% 1 12.11.2026 -
Santiago Kubiszyn Morón Ativo 120 / 109 40% 1 12.11.2026 -
Emiliano González Almagro Ativo 111 / 106 40% 2 09.11.2026 -
Francisco Castillo Llaneros Ativo 106 / 95 40% 1 09.11.2026 -
Facundo Nadalín San Martín SJ Ativo 115 / 121 40% 1 09.11.2026 -
Federico Bisanz Atlanta Ativo 121 / 113 40% 1 09.11.2026 -
Jeferson Nolasco Cesar Vallejo Ativo 99 / 95 40% 1 07.11.2026 -
Martin Trnovský Podbrezova Ativo 113 / 100 40% 1 05.11.2026 -
Federico Varese Racing Ativo 103 / 121 40% 1 05.11.2026 -
Jeffrey Acquah Liberty Professionals Ativo 96 / 94 40% 1 04.11.2026 -
Lautaro Bursich Talleres Ativo 98 / 102 40% 1 03.11.2026 -
Chisom Chiaha Barau Ativo 80 / 98 40% 1 03.11.2026 -
Alcides Benítez Belgrano Ativo 109 / 119 40% 1 02.11.2026 -
Ramón González Almirante Brown Ativo 120 / 121 40% 1 02.11.2026 -
Matías Montero Madryn Ativo 92 / 109 40% 2 29.10.2026 -
Sebastián Jaurena San Martín SJ Ativo 109 / 120 40% 1 29.10.2026 -
Francisco Salerno Defensores Unidos Ativo 102 / 110 40% 1 29.10.2026 -
Moisés Gallo Zulia Ativo 92 / 91 40% 2 28.10.2026 -
Luciano Peraggini Maipú Ativo 110 / 102 40% 3 28.10.2026 -
Oleksandr Saputin Poltava Ativo 116 / 124 40% 1 26.10.2026 -
Tomás Durso Atlético Tucumán Ativo 122 / 115 40% 1 25.10.2026 -
Joaquín Bigo Tristán Suárez Ativo 103 / 117 40% 1 25.10.2026 -
Lautaro Mora Huracán Ativo 101 / 118 40% 1 24.10.2026 -
Gianluca Pugliese Güemes Ativo 106 / 111 40% 1 24.10.2026 -
Jonathan Lima Debrecen Ativo 101 / 78 40% 1 20.10.2026 -
Oscar Meza General Caballero Ativo 96 / 83 40% 1 20.10.2026 -
Yuber Quiñónes Deportivo Pereira Ativo 110 / 117 40% 1 20.10.2026 -
Martín Campos Ferro Carril Oeste Ativo 123 / 114 40% 1 20.10.2026 -
John Amah Plateau United Ativo 94 / 100 40% 1 18.10.2026 -
Laureano Martínez Talleres Ativo 100 / 97 40% 1 17.10.2026 -
Mauro Casoli Talleres Ativo 102 / 94 40% 1 15.10.2026 -
Rostislav Soldatenko Torpedo Moscow Ativo 101 / 106 40% 1 15.10.2026 -
Emanuel Sittaro Instituto Ativo 92 / 98 40% 4 14.10.2026 -
Cristopher Varela Deportivo La Guaira Ativo 117 / 111 40% 1 13.10.2026 -
Santiago Sala Güemes Ativo 103 / 106 40% 1 11.10.2026 -
Abel Bustos Racing Ativo 111 / 104 40% 1 07.10.2026 -
Santiago Roggero Gimnasia y Esgrima Ativo 104 / 106 40% 1 07.10.2026 -
Juan Pablo Noce All Boys Ativo 108 / 111 40% 1 06.10.2026 -
Esteban Ojeda Estudiantes Ativo 78 / 81 40% 1 06.10.2026 -
Isaac Boehmer Vancouver Whitecaps Ativo 106 / 95 40% 1 04.10.2026 -
Lucas Verza Olimpia Ativo 111 / 107 40% 2 03.10.2026 -
Milton Cantero Talleres Ativo 90 / 96 40% 1 02.10.2026 -
Matías Tagliamonte Racing Club Ativo 115 / 122 40% 1 02.10.2026 -
Juan Pablo Barinaga Patronato Ativo 106 / 120 40% 1 27.09.2026 -
Franko Kolić Istra 1961 Ativo 105 / 121 40% 1 25.09.2026 -
Sebastián Alzate Once Caldas Ativo 72 / 92 40% 1 24.09.2026 -
Sebastián Cocimano Nueva Chicago Ativo 109 / 119 40% 1 23.09.2026 -
José Cotrina Bekescsaba Ativo 103 / 88 40% 1 21.09.2026 -
Jimmy Evans Universidad Catolica Ativo 99 / 95 40% 1 21.09.2026 -
Timothy Zechariah Rivers United Ativo 111 / 93 40% 1 18.09.2026 -
Junior Dávila Deportivo Municipal Ativo 83 / 97 40% 1 16.09.2026 -
Adrián Csenterics Estudiantes de Merida Ativo 89 / 97 40% 1 15.09.2026 -
Ricardo Bettocchi UTC Ativo 79 / 86 40% 2 14.09.2026 -
Nicolás Rossi Juventud Ativo 117 / 117 40% 1 13.09.2026 -
Žiga Frelih NK Celje Ativo 123 / 119 40% 1 13.09.2026 -
Ignacio Núñez Union Espanola Ativo 101 / 94 40% 1 13.09.2026 -
Marco Oroná Antofagasta Ativo 90 / 94 40% 1 12.09.2026 -
Matías Núñez Carabobo Ativo 111 / 92 40% 1 12.09.2026 -
Biola Sabitu Remo Stars Ativo 74 / 94 40% 1 11.09.2026 -
Fernando Tapia Club America Ativo 129 / 127 40% 1 11.09.2026 -
Daniel Monardes San Luis Ativo 84 / 98 40% 1 10.09.2026 -
Diego Valencia Universidad Catolica Ativo 106 / 107 40% 1 10.09.2026 -
Jorge Espejo Universidad de Concepcion Ativo 111 / 116 40% 1 09.09.2026 -
Andrés Gudiño Cruz Azul Ativo 112 / 128 40% 1 07.09.2026 -
Reynaldo Fontalvo Real Cartagena Ativo 91 / 106 40% 2 06.09.2026 -
Mateo Anaya Kudrivka Ativo 86 / 78 40% 1 05.09.2026 -
Williams Barlasina Fortaleza CEIF Ativo 112 / 110 40% 1 04.09.2026 -
Hugo Palacios Union Magdalena Ativo 104 / 100 40% 1 04.09.2026 -
Carlos Faya Deportivo La Guaira Ativo 111 / 101 40% 1 04.09.2026 -
Giacomo Gambetta Ayacucho Ativo 95 / 106 40% 1 02.09.2026 -
Roameth Romaña Llaneros Ativo 109 / 99 40% 1 01.09.2026 -
Vincent Edafe Warri Wolves Ativo 103 / 111 40% 1 31.08.2026 -
Jorge Hernández Tijuana Ativo 117 / 126 40% 1 30.08.2026 -
Pedro González Cerro Largo Ativo 98 / 119 40% 1 30.08.2026 -
Manuel Tasso New York City Ativo 89 / 89 40% 3 29.08.2026 -
Miguel Silva Carabobo Ativo 112 / 109 40% 1 29.08.2026 -
Juan Diego Arboleda Leones Ativo 82 / 94 40% 1 28.08.2026 -
Agustín Araujo Trujillanos Ativo 97 / 104 40% 2 23.08.2026 -
Daniel Arcila Leon Ativo 114 / 114 40% 1 23.08.2026 -
Andrés Macea Real Santander Ativo 83 / 91 40% 1 21.08.2026 -
Luis Corredor Estudiantes de Caracas Ativo 90 / 95 40% 1 19.08.2026 -
Valentín Robaldo Alianza Atletico Ativo 98 / 110 40% 1 19.08.2026 -
Mateo Seoane Gimnasia La Plata Ativo 108 / 131 40% 1 17.08.2026 -
Leandro Suhr Boston River Ativo 128 / 122 40% 1 17.08.2026 -
José Hernández Queretaro Ativo 114 / 99 40% 1 17.08.2026 -
José Miers 12 de Octubre Ativo 105 / 91 40% 1 16.08.2026 -
Santiago Godoy 12 de Octubre Ativo 90 / 90 40% 1 16.08.2026 -
Beycker Velásquez Zamora Ativo 105 / 104 40% 1 14.08.2026 -
Agustín Pérez Deportivo Tachira Ativo 102 / 94 40% 1 12.08.2026 -
Ángel Espínola Sportivo Luqueno Ativo 91 / 102 40% 1 12.08.2026 -
Ciro Thompson Newell's Old Boys Ativo 89 / 85 40% 1 11.08.2026 -
José Febres Trujillanos Ativo 89 / 92 40% 1 09.08.2026 -
Johan Hinestroza Jaguares Ativo 109 / 93 40% 1 09.08.2026 -
César Munder Palestino Ativo 116 / 109 40% 1 09.08.2026 -
Gustavo Rodriguez Valledupar Ativo 105 / 108 40% 1 09.08.2026 -
Aldo Pérez Guarani Ativo 111 / 115 40% 1 06.08.2026 -
Santiago Luján Huracán Ativo 117 / 121 40% 1 02.08.2026 -
Tomás Galván River Plate Ativo 128 / 133 40% 1 02.08.2026 -